sensor_id;sensor_type;location;lat;lon;timestamp;P1;durP1;ratioP1;P2;durP2;ratioP2
2001;SDS011;1003;48.002;7.788;2023-02-18T00:00:55;4.23;;;2.80;;
2001;SDS011;1003;48.002;7.788;2023-02-18T00:03:22;3.57;;;2.60;;
2001;SDS011;1003;48.002;7.788;2023-02-18T00:05:52;3.60;;;2.90;;
2001;SDS011;1003;48.002;7.788;2023-02-18T00:08:19;3.50;;;2.70;;
2001;SDS011;1003;48.002;7.788;2023-02-18T00:10:47;3.47;;;2.70;;
2001;SDS011;1003;48.002;7.788;2023-02-18T00:13:14;4.47;;;2.70;;
2001;SDS011;1003;48.002;7.788;2023-02-18T00:15:41;4.17;;;2.93;;
2001;SDS011;1003;48.002;7.788;2023-02-18T00:18:08;4.10;;;3.10;;
2001;SDS011;1003;48.002;7.788;2023-02-18T00:20:37;3.63;;;2.93;;
2001;SDS011;1003;48.002;7.788;2023-02-18T00:23:06;3.93;;;3.43;;
2001;SDS011;1003;48.002;7.788;2023-02-18T00:25:33;3.43;;;2.83;;
2001;SDS011;1003;48.002;7.788;2023-02-18T00:28:00;3.77;;;2.83;;
2001;SDS011;1003;48.002;7.788;2023-02-18T00:30:27;5.97;;;3.17;;
2001;SDS011;1003;48.002;7.788;2023-02-18T00:32:54;3.93;;;3.00;;
2001;SDS011;1003;48.002;7.788;2023-02-18T00:35:21;3.10;;;2.80;;
2001;SDS011;1003;48.002;7.788;2023-02-18T00:37:49;3.40;;;2.80;;
2001;SDS011;1003;48.002;7.788;2023-02-18T00:40:19;3.93;;;2.73;;
2001;SDS011;1003;48.002;7.788;2023-02-18T00:42:46;4.07;;;2.90;;
2001;SDS011;1003;48.002;7.788;2023-02-18T00:45:13;3.80;;;2.70;;
2001;SDS011;1003;48.002;7.788;2023-02-18T00:47:40;4.13;;;2.80;;
2001;SDS011;1003;48.002;7.788;2023-02-18T00:50:08;3.53;;;2.70;;
2001;SDS011;1003;48.002;7.788;2023-02-18T00:52:36;3.53;;;2.50;;
2001;SDS011;1003;48.002;7.788;2023-02-18T00:55:03;3.03;;;2.60;;
2001;SDS011;1003;48.002;7.788;2023-02-18T00:57:32;3.00;;;2.47;;
2001;SDS011;1003;48.002;7.788;2023-02-18T00:59:59;2.80;;;2.53;;
2001;SDS011;1003;48.002;7.788;2023-02-18T01:02:26;4.73;;;2.70;;
2001;SDS011;1003;48.002;7.788;2023-02-18T01:04:53;3.80;;;2.63;;
2001;SDS011;1003;48.002;7.788;2023-02-18T01:07:20;3.63;;;2.57;;
2001;SDS011;1003;48.002;7.788;2023-02-18T01:09:48;3.00;;;2.23;;
2001;SDS011;1003;48.002;7.788;2023-02-18T01:12:15;4.07;;;2.67;;
2001;SDS011;1003;48.002;7.788;2023-02-18T01:14:44;2.80;;;2.23;;
2001;SDS011;1003;48.002;7.788;2023-02-18T01:17:11;3.47;;;2.57;;
2001;SDS011;1003;48.002;7.788;2023-02-18T01:19:38;2.63;;;2.17;;
2001;SDS011;1003;48.002;7.788;2023-02-18T01:22:05;3.27;;;2.30;;
2001;SDS011;1003;48.002;7.788;2023-02-18T01:24:32;2.87;;;2.20;;
2001;SDS011;1003;48.002;7.788;2023-02-18T01:26:59;4.77;;;2.37;;
2001;SDS011;1003;48.002;7.788;2023-02-18T01:29:26;2.50;;;2.20;;
2001;SDS011;1003;48.002;7.788;2023-02-18T01:31:54;3.60;;;2.30;;
2001;SDS011;1003;48.002;7.788;2023-02-18T01:34:21;3.50;;;2.20;;
2001;SDS011;1003;48.002;7.788;2023-02-18T01:36:48;2.50;;;2.00;;
2001;SDS011;1003;48.002;7.788;2023-02-18T01:39:15;4.13;;;2.47;;
2001;SDS011;1003;48.002;7.788;2023-02-18T01:41:42;2.60;;;1.90;;
2001;SDS011;1003;48.002;7.788;2023-02-18T01:44:11;3.07;;;2.30;;
2001;SDS011;1003;48.002;7.788;2023-02-18T01:46:43;2.93;;;2.03;;
2001;SDS011;1003;48.002;7.788;2023-02-18T01:49:13;2.67;;;2.20;;
2001;SDS011;1003;48.002;7.788;2023-02-18T01:51:45;2.80;;;2.00;;
2001;SDS011;1003;48.002;7.788;2023-02-18T01:54:18;3.90;;;2.00;;
2001;SDS011;1003;48.002;7.788;2023-02-18T01:56:52;3.00;;;2.00;;
2001;SDS011;1003;48.002;7.788;2023-02-18T01:59:25;2.70;;;2.00;;
2001;SDS011;1003;48.002;7.788;2023-02-18T02:01:58;2.40;;;1.80;;
2001;SDS011;1003;48.002;7.788;2023-02-18T02:04:27;2.07;;;1.70;;
2001;SDS011;1003;48.002;7.788;2023-02-18T02:06:54;2.00;;;1.77;;
2001;SDS011;1003;48.002;7.788;2023-02-18T02:09:21;2.70;;;1.80;;
2001;SDS011;1003;48.002;7.788;2023-02-18T02:15:02;2.67;;;1.87;;
2001;SDS011;1003;48.002;7.788;2023-02-18T02:17:52;3.10;;;1.70;;
2001;SDS011;1003;48.002;7.788;2023-02-18T02:20:45;2.13;;;1.77;;
2001;SDS011;1003;48.002;7.788;2023-02-18T02:27:20;1.57;;;1.40;;
2001;SDS011;1003;48.002;7.788;2023-02-18T02:30:18;1.57;;;1.40;;
2001;SDS011;1003;48.002;7.788;2023-02-18T02:33:19;2.27;;;1.83;;
2001;SDS011;1003;48.002;7.788;2023-02-18T02:36:15;2.63;;;1.67;;
2001;SDS011;1003;48.002;7.788;2023-02-18T02:38:51;1.70;;;1.40;;
2001;SDS011;1003;48.002;7.788;2023-02-18T02:41:29;1.90;;;1.70;;
2001;SDS011;1003;48.002;7.788;2023-02-18T02:44:15;2.13;;;1.60;;
2001;SDS011;1003;48.002;7.788;2023-02-18T02:46:47;1.60;;;1.50;;
2001;SDS011;1003;48.002;7.788;2023-02-18T02:49:24;2.73;;;1.60;;
2001;SDS011;1003;48.002;7.788;2023-02-18T02:52:06;2.53;;;1.57;;
2001;SDS011;1003;48.002;7.788;2023-02-18T02:54:41;3.13;;;1.60;;
2001;SDS011;1003;48.002;7.788;2023-02-18T02:57:40;1.90;;;1.40;;
2001;SDS011;1003;48.002;7.788;2023-02-18T03:00:11;1.67;;;1.57;;
2001;SDS011;1003;48.002;7.788;2023-02-18T03:02:48;2.03;;;1.40;;
2001;SDS011;1003;48.002;7.788;2023-02-18T03:05:34;2.00;;;1.50;;
2001;SDS011;1003;48.002;7.788;2023-02-18T03:08:24;1.50;;;1.40;;
2001;SDS011;1003;48.002;7.788;2023-02-18T03:11:07;2.00;;;1.70;;
2001;SDS011;1003;48.002;7.788;2023-02-18T03:13:42;2.00;;;1.77;;
2001;SDS011;1003;48.002;7.788;2023-02-18T03:16:25;1.80;;;1.50;;
2001;SDS011;1003;48.002;7.788;2023-02-18T03:19:01;1.90;;;1.70;;
2001;SDS011;1003;48.002;7.788;2023-02-18T03:21:40;1.77;;;1.50;;
2001;SDS011;1003;48.002;7.788;2023-02-18T03:24:15;2.17;;;1.63;;
2001;SDS011;1003;48.002;7.788;2023-02-18T03:26:49;2.13;;;1.47;;
2001;SDS011;1003;48.002;7.788;2023-02-18T03:29:23;1.63;;;1.27;;
2001;SDS011;1003;48.002;7.788;2023-02-18T03:31:54;1.67;;;1.43;;
2001;SDS011;1003;48.002;7.788;2023-02-18T03:34:27;1.60;;;1.50;;
2001;SDS011;1003;48.002;7.788;2023-02-18T03:36:57;1.70;;;1.50;;
2001;SDS011;1003;48.002;7.788;2023-02-18T03:39:29;1.63;;;1.33;;
2001;SDS011;1003;48.002;7.788;2023-02-18T03:41:59;1.80;;;1.47;;
2001;SDS011;1003;48.002;7.788;2023-02-18T03:44:26;1.17;;;1.00;;
2001;SDS011;1003;48.002;7.788;2023-02-18T03:46:53;2.47;;;1.60;;
2001;SDS011;1003;48.002;7.788;2023-02-18T03:49:20;1.80;;;1.67;;
2001;SDS011;1003;48.002;7.788;2023-02-18T03:51:47;1.73;;;1.60;;
2001;SDS011;1003;48.002;7.788;2023-02-18T03:54:14;1.90;;;1.40;;
2001;SDS011;1003;48.002;7.788;2023-02-18T03:56:43;1.63;;;1.47;;
2001;SDS011;1003;48.002;7.788;2023-02-18T03:59:10;1.57;;;1.47;;
2001;SDS011;1003;48.002;7.788;2023-02-18T04:01:38;1.40;;;1.30;;
2001;SDS011;1003;48.002;7.788;2023-02-18T04:04:05;2.10;;;1.60;;
2001;SDS011;1003;48.002;7.788;2023-02-18T04:06:32;1.90;;;1.60;;
2001;SDS011;1003;48.002;7.788;2023-02-18T04:08:59;1.60;;;1.50;;
2001;SDS011;1003;48.002;7.788;2023-02-18T04:11:26;1.40;;;1.30;;
2001;SDS011;1003;48.002;7.788;2023-02-18T04:13:55;1.40;;;1.30;;
2001;SDS011;1003;48.002;7.788;2023-02-18T04:16:22;2.27;;;1.40;;
2001;SDS011;1003;48.002;7.788;2023-02-18T04:18:49;2.20;;;1.20;;
2001;SDS011;1003;48.002;7.788;2023-02-18T04:21:16;2.90;;;1.47;;
2001;SDS011;1003;48.002;7.788;2023-02-18T04:23:43;1.67;;;1.30;;
2001;SDS011;1003;48.002;7.788;2023-02-18T04:26:10;2.63;;;1.40;;
2001;SDS011;1003;48.002;7.788;2023-02-18T04:28:37;1.30;;;1.20;;
2001;SDS011;1003;48.002;7.788;2023-02-18T04:31:05;1.60;;;1.47;;
2001;SDS011;1003;48.002;7.788;2023-02-18T04:33:32;1.70;;;1.37;;
2001;SDS011;1003;48.002;7.788;2023-02-18T04:35:59;1.27;;;1.17;;
2001;SDS011;1003;48.002;7.788;2023-02-18T04:38:27;1.50;;;1.30;;
2001;SDS011;1003;48.002;7.788;2023-02-18T04:40:54;1.10;;;1.10;;
2001;SDS011;1003;48.002;7.788;2023-02-18T04:43:21;3.17;;;2.47;;
2001;SDS011;1003;48.002;7.788;2023-02-18T04:45:48;2.27;;;1.60;;
2001;SDS011;1003;48.002;7.788;2023-02-18T04:48:17;1.23;;;1.13;;
2001;SDS011;1003;48.002;7.788;2023-02-18T04:50:44;2.03;;;1.30;;
2001;SDS011;1003;48.002;7.788;2023-02-18T04:53:12;2.00;;;1.00;;
2001;SDS011;1003;48.002;7.788;2023-02-18T04:55:39;1.30;;;1.20;;
2001;SDS011;1003;48.002;7.788;2023-02-18T04:58:06;1.20;;;1.10;;
2001;SDS011;1003;48.002;7.788;2023-02-18T05:00:34;1.53;;;1.30;;
2001;SDS011;1003;48.002;7.788;2023-02-18T05:03:01;1.00;;;1.00;;
2001;SDS011;1003;48.002;7.788;2023-02-18T05:05:29;1.07;;;1.00;;
2001;SDS011;1003;48.002;7.788;2023-02-18T05:07:56;1.70;;;1.13;;
2001;SDS011;1003;48.002;7.788;2023-02-18T05:10:23;1.93;;;1.00;;
2001;SDS011;1003;48.002;7.788;2023-02-18T05:12:50;1.07;;;0.90;;
2001;SDS011;1003;48.002;7.788;2023-02-18T05:15:17;2.40;;;1.23;;
2001;SDS011;1003;48.002;7.788;2023-02-18T05:17:44;1.93;;;1.00;;
2001;SDS011;1003;48.002;7.788;2023-02-18T05:20:12;1.17;;;1.10;;
2001;SDS011;1003;48.002;7.788;2023-02-18T05:22:40;1.10;;;1.00;;
2001;SDS011;1003;48.002;7.788;2023-02-18T05:25:07;0.80;;;0.80;;
2001;SDS011;1003;48.002;7.788;2023-02-18T05:27:34;1.87;;;1.00;;
2001;SDS011;1003;48.002;7.788;2023-02-18T05:30:02;1.30;;;1.10;;
2001;SDS011;1003;48.002;7.788;2023-02-18T05:32:29;2.07;;;1.40;;
2001;SDS011;1003;48.002;7.788;2023-02-18T05:34:57;1.30;;;1.20;;
2001;SDS011;1003;48.002;7.788;2023-02-18T05:37:24;1.00;;;1.00;;
2001;SDS011;1003;48.002;7.788;2023-02-18T05:39:53;1.40;;;1.20;;
2001;SDS011;1003;48.002;7.788;2023-02-18T05:42:20;0.90;;;0.90;;
2001;SDS011;1003;48.002;7.788;2023-02-18T05:44:47;1.33;;;1.23;;
2001;SDS011;1003;48.002;7.788;2023-02-18T05:47:14;1.17;;;1.00;;
2001;SDS011;1003;48.002;7.788;2023-02-18T05:49:42;1.23;;;1.03;;
2001;SDS011;1003;48.002;7.788;2023-02-18T05:52:09;0.97;;;0.87;;
2001;SDS011;1003;48.002;7.788;2023-02-18T05:54:37;1.73;;;1.00;;
2001;SDS011;1003;48.002;7.788;2023-02-18T05:57:06;1.10;;;1.00;;
2001;SDS011;1003;48.002;7.788;2023-02-18T05:59:33;0.70;;;0.70;;
2001;SDS011;1003;48.002;7.788;2023-02-18T06:02:00;0.83;;;0.83;;
2001;SDS011;1003;48.002;7.788;2023-02-18T06:04:27;1.30;;;1.10;;
2001;SDS011;1003;48.002;7.788;2023-02-18T06:06:54;1.53;;;1.10;;
2001;SDS011;1003;48.002;7.788;2023-02-18T06:09:22;1.17;;;1.07;;
2001;SDS011;1003;48.002;7.788;2023-02-18T06:11:49;1.70;;;1.60;;
2001;SDS011;1003;48.002;7.788;2023-02-18T06:14:18;1.13;;;1.10;;
2001;SDS011;1003;48.002;7.788;2023-02-18T06:16:45;1.50;;;1.40;;
2001;SDS011;1003;48.002;7.788;2023-02-18T06:19:12;2.03;;;1.70;;
2001;SDS011;1003;48.002;7.788;2023-02-18T06:21:39;2.03;;;1.80;;
2001;SDS011;1003;48.002;7.788;2023-02-18T06:24:06;2.10;;;1.90;;
2001;SDS011;1003;48.002;7.788;2023-02-18T06:26:33;3.67;;;3.37;;
2001;SDS011;1003;48.002;7.788;2023-02-18T06:29:00;5.17;;;4.63;;
2001;SDS011;1003;48.002;7.788;2023-02-18T06:31:29;3.93;;;3.53;;
2001;SDS011;1003;48.002;7.788;2023-02-18T06:33:56;5.47;;;4.60;;
2001;SDS011;1003;48.002;7.788;2023-02-18T06:36:23;2.10;;;1.90;;
2001;SDS011;1003;48.002;7.788;2023-02-18T06:38:50;1.60;;;1.03;;
2001;SDS011;1003;48.002;7.788;2023-02-18T06:41:18;2.40;;;0.80;;
2001;SDS011;1003;48.002;7.788;2023-02-18T06:43:45;0.60;;;0.60;;
2001;SDS011;1003;48.002;7.788;2023-02-18T06:46:12;1.17;;;1.07;;
2001;SDS011;1003;48.002;7.788;2023-02-18T06:48:40;0.93;;;0.90;;
2001;SDS011;1003;48.002;7.788;2023-02-18T06:51:08;1.43;;;1.30;;
2001;SDS011;1003;48.002;7.788;2023-02-18T06:53:35;1.30;;;1.20;;
2001;SDS011;1003;48.002;7.788;2023-02-18T06:56:02;1.17;;;1.07;;
2001;SDS011;1003;48.002;7.788;2023-02-18T06:58:29;0.97;;;0.90;;
2001;SDS011;1003;48.002;7.788;2023-02-18T07:00:57;0.80;;;0.80;;
2001;SDS011;1003;48.002;7.788;2023-02-18T07:03:24;0.90;;;0.90;;
2001;SDS011;1003;48.002;7.788;2023-02-18T07:05:53;0.70;;;0.70;;
2001;SDS011;1003;48.002;7.788;2023-02-18T07:08:20;0.80;;;0.80;;
2001;SDS011;1003;48.002;7.788;2023-02-18T07:10:47;3.90;;;0.83;;
2001;SDS011;1003;48.002;7.788;2023-02-18T07:13:14;0.77;;;0.67;;
2001;SDS011;1003;48.002;7.788;2023-02-18T07:15:42;0.80;;;0.80;;
2001;SDS011;1003;48.002;7.788;2023-02-18T07:18:09;0.77;;;0.77;;
2001;SDS011;1003;48.002;7.788;2023-02-18T07:20:36;1.27;;;0.80;;
2001;SDS011;1003;48.002;7.788;2023-02-18T07:23:04;0.90;;;0.90;;
2001;SDS011;1003;48.002;7.788;2023-02-18T07:25:31;1.13;;;0.70;;
2001;SDS011;1003;48.002;7.788;2023-02-18T07:27:58;1.20;;;1.00;;
2001;SDS011;1003;48.002;7.788;2023-02-18T07:30:25;1.10;;;1.00;;
2001;SDS011;1003;48.002;7.788;2023-02-18T07:32:52;3.20;;;1.10;;
2001;SDS011;1003;48.002;7.788;2023-02-18T07:35:20;1.40;;;1.20;;
2001;SDS011;1003;48.002;7.788;2023-02-18T07:37:47;1.80;;;1.00;;
2001;SDS011;1003;48.002;7.788;2023-02-18T07:40:18;1.30;;;1.20;;
2001;SDS011;1003;48.002;7.788;2023-02-18T07:42:47;1.00;;;0.90;;
2001;SDS011;1003;48.002;7.788;2023-02-18T07:45:14;2.03;;;0.87;;
2001;SDS011;1003;48.002;7.788;2023-02-18T07:47:42;0.93;;;0.93;;
2001;SDS011;1003;48.002;7.788;2023-02-18T07:50:12;0.70;;;0.70;;
2001;SDS011;1003;48.002;7.788;2023-02-18T07:52:39;0.70;;;0.70;;
2001;SDS011;1003;48.002;7.788;2023-02-18T07:55:07;1.40;;;0.73;;
2001;SDS011;1003;48.002;7.788;2023-02-18T07:57:35;0.70;;;0.70;;
2001;SDS011;1003;48.002;7.788;2023-02-18T08:00:21;0.80;;;0.80;;
2001;SDS011;1003;48.002;7.788;2023-02-18T08:02:49;0.80;;;0.80;;
2001;SDS011;1003;48.002;7.788;2023-02-18T08:05:16;1.23;;;1.00;;
2001;SDS011;1003;48.002;7.788;2023-02-18T08:07:43;0.90;;;0.87;;
2001;SDS011;1003;48.002;7.788;2023-02-18T08:10:10;1.17;;;0.90;;
2001;SDS011;1003;48.002;7.788;2023-02-18T08:12:39;1.70;;;1.00;;
2001;SDS011;1003;48.002;7.788;2023-02-18T08:15:06;1.60;;;1.00;;
2001;SDS011;1003;48.002;7.788;2023-02-18T08:17:34;0.87;;;0.87;;
2001;SDS011;1003;48.002;7.788;2023-02-18T08:20:01;1.10;;;0.97;;
2001;SDS011;1003;48.002;7.788;2023-02-18T08:22:30;1.47;;;1.00;;
2001;SDS011;1003;48.002;7.788;2023-02-18T08:24:57;0.90;;;0.90;;
2001;SDS011;1003;48.002;7.788;2023-02-18T08:27:24;2.23;;;1.23;;
2001;SDS011;1003;48.002;7.788;2023-02-18T08:29:52;3.20;;;2.30;;
2001;SDS011;1003;48.002;7.788;2023-02-18T08:32:20;1.00;;;0.90;;
2001;SDS011;1003;48.002;7.788;2023-02-18T08:34:47;1.20;;;1.10;;
2001;SDS011;1003;48.002;7.788;2023-02-18T08:37:14;1.27;;;1.17;;
2001;SDS011;1003;48.002;7.788;2023-02-18T08:39:41;1.00;;;1.00;;
2001;SDS011;1003;48.002;7.788;2023-02-18T08:42:08;1.97;;;1.10;;
2001;SDS011;1003;48.002;7.788;2023-02-18T08:44:35;0.80;;;0.80;;
2001;SDS011;1003;48.002;7.788;2023-02-18T08:47:04;1.10;;;0.83;;
2001;SDS011;1003;48.002;7.788;2023-02-18T08:49:31;1.10;;;1.00;;
2001;SDS011;1003;48.002;7.788;2023-02-18T08:51:58;1.43;;;1.10;;
2001;SDS011;1003;48.002;7.788;2023-02-18T08:54:25;1.40;;;1.20;;
2001;SDS011;1003;48.002;7.788;2023-02-18T08:56:53;1.00;;;1.00;;
2001;SDS011;1003;48.002;7.788;2023-02-18T08:59:21;1.23;;;1.00;;
2001;SDS011;1003;48.002;7.788;2023-02-18T09:01:49;1.50;;;1.10;;
2001;SDS011;1003;48.002;7.788;2023-02-18T09:04:17;1.53;;;1.20;;
2001;SDS011;1003;48.002;7.788;2023-02-18T09:06:45;1.77;;;1.20;;
2001;SDS011;1003;48.002;7.788;2023-02-18T09:09:14;1.17;;;1.00;;
2001;SDS011;1003;48.002;7.788;2023-02-18T09:11:41;2.20;;;1.20;;
2001;SDS011;1003;48.002;7.788;2023-02-18T09:14:09;1.30;;;1.20;;
2001;SDS011;1003;48.002;7.788;2023-02-18T09:16:37;1.30;;;1.20;;
2001;SDS011;1003;48.002;7.788;2023-02-18T09:19:05;1.70;;;1.20;;
2001;SDS011;1003;48.002;7.788;2023-02-18T09:21:34;1.27;;;1.20;;
2001;SDS011;1003;48.002;7.788;2023-02-18T09:24:01;1.07;;;0.90;;
2001;SDS011;1003;48.002;7.788;2023-02-18T09:26:29;1.73;;;1.10;;
2001;SDS011;1003;48.002;7.788;2023-02-18T09:28:57;2.10;;;1.50;;
2001;SDS011;1003;48.002;7.788;2023-02-18T09:31:24;1.30;;;1.20;;
2001;SDS011;1003;48.002;7.788;2023-02-18T09:33:53;1.30;;;1.20;;
2001;SDS011;1003;48.002;7.788;2023-02-18T09:36:24;0.90;;;0.90;;
2001;SDS011;1003;48.002;7.788;2023-02-18T09:38:53;1.50;;;1.40;;
2001;SDS011;1003;48.002;7.788;2023-02-18T09:41:26;1.33;;;1.23;;
2001;SDS011;1003;48.002;7.788;2023-02-18T09:44:04;0.90;;;0.90;;
2001;SDS011;1003;48.002;7.788;2023-02-18T09:46:38;2.00;;;1.20;;
2001;SDS011;1003;48.002;7.788;2023-02-18T09:49:15;1.50;;;1.27;;
2001;SDS011;1003;48.002;7.788;2023-02-18T09:51:47;1.20;;;1.10;;
2001;SDS011;1003;48.002;7.788;2023-02-18T09:54:16;1.30;;;1.20;;
2001;SDS011;1003;48.002;7.788;2023-02-18T09:56:45;1.87;;;1.13;;
2001;SDS011;1003;48.002;7.788;2023-02-18T09:59:15;1.07;;;1.07;;
2001;SDS011;1003;48.002;7.788;2023-02-18T10:01:45;1.00;;;1.00;;
2001;SDS011;1003;48.002;7.788;2023-02-18T10:04:18;1.30;;;1.20;;
2001;SDS011;1003;48.002;7.788;2023-02-18T10:06:50;1.33;;;1.23;;
2001;SDS011;1003;48.002;7.788;2023-02-18T10:09:21;1.10;;;1.00;;
2001;SDS011;1003;48.002;7.788;2023-02-18T10:11:55;1.40;;;1.30;;
2001;SDS011;1003;48.002;7.788;2023-02-18T10:14:27;1.23;;;1.03;;
2001;SDS011;1003;48.002;7.788;2023-02-18T10:16:55;1.77;;;0.93;;
2001;SDS011;1003;48.002;7.788;2023-02-18T10:19:27;1.20;;;1.10;;
2001;SDS011;1003;48.002;7.788;2023-02-18T10:21:59;1.13;;;1.03;;
2001;SDS011;1003;48.002;7.788;2023-02-18T10:24:30;1.20;;;1.10;;
2001;SDS011;1003;48.002;7.788;2023-02-18T10:27:04;1.27;;;1.17;;
2001;SDS011;1003;48.002;7.788;2023-02-18T10:29:34;1.37;;;1.27;;
2001;SDS011;1003;48.002;7.788;2023-02-18T10:32:04;1.37;;;1.27;;
2001;SDS011;1003;48.002;7.788;2023-02-18T10:34:44;1.20;;;1.10;;
2001;SDS011;1003;48.002;7.788;2023-02-18T10:37:30;1.27;;;1.10;;
2001;SDS011;1003;48.002;7.788;2023-02-18T10:40:24;1.30;;;1.20;;
2001;SDS011;1003;48.002;7.788;2023-02-18T10:43:14;0.80;;;0.80;;
2001;SDS011;1003;48.002;7.788;2023-02-18T10:45:52;1.53;;;1.10;;
2001;SDS011;1003;48.002;7.788;2023-02-18T10:48:34;1.13;;;1.03;;
2001;SDS011;1003;48.002;7.788;2023-02-18T10:51:23;1.53;;;1.30;;
2001;SDS011;1003;48.002;7.788;2023-02-18T10:53:56;2.13;;;1.23;;
2001;SDS011;1003;48.002;7.788;2023-02-18T10:56:35;1.13;;;1.00;;
2001;SDS011;1003;48.002;7.788;2023-02-18T10:59:18;1.60;;;1.10;;
2001;SDS011;1003;48.002;7.788;2023-02-18T11:01:52;1.20;;;1.10;;
2001;SDS011;1003;48.002;7.788;2023-02-18T11:04:24;0.97;;;0.97;;
2001;SDS011;1003;48.002;7.788;2023-02-18T11:07:02;1.00;;;1.00;;
2001;SDS011;1003;48.002;7.788;2023-02-18T11:09:33;1.00;;;1.00;;
2001;SDS011;1003;48.002;7.788;2023-02-18T11:12:12;1.20;;;1.10;;
2001;SDS011;1003;48.002;7.788;2023-02-18T11:14:44;1.30;;;1.20;;
2001;SDS011;1003;48.002;7.788;2023-02-18T11:17:16;2.30;;;1.10;;
2001;SDS011;1003;48.002;7.788;2023-02-18T11:19:51;0.93;;;0.93;;
2001;SDS011;1003;48.002;7.788;2023-02-18T11:22:21;0.90;;;0.90;;
2001;SDS011;1003;48.002;7.788;2023-02-18T11:24:54;1.30;;;1.20;;
2001;SDS011;1003;48.002;7.788;2023-02-18T11:27:26;1.20;;;1.10;;
2001;SDS011;1003;48.002;7.788;2023-02-18T11:30:01;1.20;;;1.10;;
2001;SDS011;1003;48.002;7.788;2023-02-18T11:32:42;1.17;;;1.07;;
2001;SDS011;1003;48.002;7.788;2023-02-18T11:35:15;2.93;;;2.27;;
2001;SDS011;1003;48.002;7.788;2023-02-18T11:37:45;1.70;;;1.30;;
2001;SDS011;1003;48.002;7.788;2023-02-18T11:40:18;2.40;;;1.83;;
2001;SDS011;1003;48.002;7.788;2023-02-18T11:42:50;1.20;;;1.00;;
2001;SDS011;1003;48.002;7.788;2023-02-18T11:45:28;1.57;;;1.40;;
2001;SDS011;1003;48.002;7.788;2023-02-18T11:47:59;1.07;;;0.90;;
2001;SDS011;1003;48.002;7.788;2023-02-18T11:50:32;1.20;;;1.00;;
2001;SDS011;1003;48.002;7.788;2023-02-18T11:53:00;1.07;;;1.00;;
2001;SDS011;1003;48.002;7.788;2023-02-18T11:55:56;1.30;;;1.20;;
2001;SDS011;1003;48.002;7.788;2023-02-18T11:58:36;1.20;;;1.00;;
2001;SDS011;1003;48.002;7.788;2023-02-18T12:01:11;0.90;;;0.90;;
2001;SDS011;1003;48.002;7.788;2023-02-18T12:03:51;1.47;;;1.37;;
2001;SDS011;1003;48.002;7.788;2023-02-18T12:06:24;1.20;;;1.10;;
2001;SDS011;1003;48.002;7.788;2023-02-18T12:08:59;1.20;;;1.10;;
2001;SDS011;1003;48.002;7.788;2023-02-18T12:11:33;1.33;;;0.83;;
2001;SDS011;1003;48.002;7.788;2023-02-18T12:14:10;1.27;;;1.17;;
2001;SDS011;1003;48.002;7.788;2023-02-18T12:16:44;1.00;;;1.00;;
2001;SDS011;1003;48.002;7.788;2023-02-18T12:19:45;1.10;;;1.10;;
2001;SDS011;1003;48.002;7.788;2023-02-18T12:22:32;1.30;;;1.20;;
2001;SDS011;1003;48.002;7.788;2023-02-18T12:28:06;1.57;;;1.10;;
2001;SDS011;1003;48.002;7.788;2023-02-18T12:31:06;1.17;;;1.17;;
2001;SDS011;1003;48.002;7.788;2023-02-18T12:33:57;1.13;;;0.97;;
2001;SDS011;1003;48.002;7.788;2023-02-18T12:36:54;1.10;;;1.07;;
2001;SDS011;1003;48.002;7.788;2023-02-18T12:39:41;1.00;;;1.00;;
2001;SDS011;1003;48.002;7.788;2023-02-18T12:42:34;1.40;;;1.30;;
2001;SDS011;1003;48.002;7.788;2023-02-18T12:45:33;1.07;;;1.00;;
2001;SDS011;1003;48.002;7.788;2023-02-18T12:48:28;1.53;;;1.30;;
2001;SDS011;1003;48.002;7.788;2023-02-18T12:51:36;1.30;;;1.13;;
2001;SDS011;1003;48.002;7.788;2023-02-18T12:54:22;1.00;;;0.90;;
2001;SDS011;1003;48.002;7.788;2023-02-18T12:57:21;1.40;;;1.30;;
2001;SDS011;1003;48.002;7.788;2023-02-18T13:00:07;2.43;;;1.30;;
2001;SDS011;1003;48.002;7.788;2023-02-18T13:06:37;1.70;;;1.17;;
2001;SDS011;1003;48.002;7.788;2023-02-18T13:09:24;1.20;;;1.10;;
2001;SDS011;1003;48.002;7.788;2023-02-18T13:12:04;1.30;;;1.20;;
2001;SDS011;1003;48.002;7.788;2023-02-18T13:14:42;1.93;;;1.20;;
2001;SDS011;1003;48.002;7.788;2023-02-18T13:17:21;2.03;;;1.20;;
2001;SDS011;1003;48.002;7.788;2023-02-18T13:19:57;1.47;;;1.17;;
2001;SDS011;1003;48.002;7.788;2023-02-18T13:22:30;1.83;;;1.30;;
2001;SDS011;1003;48.002;7.788;2023-02-18T13:24:58;1.17;;;1.10;;
2001;SDS011;1003;48.002;7.788;2023-02-18T13:27:28;1.40;;;1.30;;
2001;SDS011;1003;48.002;7.788;2023-02-18T13:30:09;1.40;;;1.30;;
2001;SDS011;1003;48.002;7.788;2023-02-18T13:32:51;1.30;;;1.17;;
2001;SDS011;1003;48.002;7.788;2023-02-18T13:35:35;1.40;;;1.30;;
2001;SDS011;1003;48.002;7.788;2023-02-18T13:38:15;1.50;;;1.03;;
2001;SDS011;1003;48.002;7.788;2023-02-18T13:41:19;1.00;;;1.00;;
2001;SDS011;1003;48.002;7.788;2023-02-18T13:43:48;1.83;;;1.43;;
2001;SDS011;1003;48.002;7.788;2023-02-18T13:46:16;2.00;;;1.60;;
2001;SDS011;1003;48.002;7.788;2023-02-18T13:48:46;1.90;;;1.30;;
2001;SDS011;1003;48.002;7.788;2023-02-18T13:51:26;1.43;;;1.30;;
2001;SDS011;1003;48.002;7.788;2023-02-18T13:53:59;2.60;;;1.17;;
2001;SDS011;1003;48.002;7.788;2023-02-18T13:56:30;1.73;;;1.30;;
2001;SDS011;1003;48.002;7.788;2023-02-18T13:59:02;2.23;;;1.10;;
2001;SDS011;1003;48.002;7.788;2023-02-18T14:01:42;1.93;;;1.20;;
2001;SDS011;1003;48.002;7.788;2023-02-18T14:07:26;1.27;;;1.17;;
2001;SDS011;1003;48.002;7.788;2023-02-18T14:10:23;1.40;;;1.30;;
2001;SDS011;1003;48.002;7.788;2023-02-18T14:13:00;1.37;;;1.27;;
2001;SDS011;1003;48.002;7.788;2023-02-18T14:15:55;1.53;;;1.40;;
2001;SDS011;1003;48.002;7.788;2023-02-18T14:18:33;1.30;;;1.20;;
2001;SDS011;1003;48.002;7.788;2023-02-18T14:21:42;1.60;;;1.40;;
2001;SDS011;1003;48.002;7.788;2023-02-18T14:24:11;1.10;;;1.10;;
2001;SDS011;1003;48.002;7.788;2023-02-18T14:26:41;1.40;;;1.30;;
2001;SDS011;1003;48.002;7.788;2023-02-18T14:29:13;1.33;;;1.23;;
2001;SDS011;1003;48.002;7.788;2023-02-18T14:31:51;1.00;;;1.00;;
2001;SDS011;1003;48.002;7.788;2023-02-18T14:37:48;1.43;;;1.30;;
2001;SDS011;1003;48.002;7.788;2023-02-18T14:40:48;2.00;;;1.37;;
2001;SDS011;1003;48.002;7.788;2023-02-18T14:43:47;1.77;;;1.50;;
2001;SDS011;1003;48.002;7.788;2023-02-18T14:47:01;1.37;;;1.07;;
2001;SDS011;1003;48.002;7.788;2023-02-18T14:49:48;1.17;;;1.13;;
2001;SDS011;1003;48.002;7.788;2023-02-18T14:52:22;1.50;;;1.40;;
2001;SDS011;1003;48.002;7.788;2023-02-18T14:54:57;1.40;;;1.27;;
2001;SDS011;1003;48.002;7.788;2023-02-18T14:57:33;1.50;;;1.40;;
2001;SDS011;1003;48.002;7.788;2023-02-18T15:00:13;1.50;;;1.30;;
2001;SDS011;1003;48.002;7.788;2023-02-18T15:02:42;1.37;;;1.27;;
2001;SDS011;1003;48.002;7.788;2023-02-18T15:05:15;1.50;;;1.40;;
2001;SDS011;1003;48.002;7.788;2023-02-18T15:07:54;1.50;;;1.40;;
2001;SDS011;1003;48.002;7.788;2023-02-18T15:10:34;1.20;;;1.10;;
2001;SDS011;1003;48.002;7.788;2023-02-18T15:13:08;1.67;;;1.37;;
2001;SDS011;1003;48.002;7.788;2023-02-18T15:15:44;1.77;;;1.30;;
2001;SDS011;1003;48.002;7.788;2023-02-18T15:18:17;1.50;;;1.37;;
2001;SDS011;1003;48.002;7.788;2023-02-18T15:20:54;1.43;;;1.30;;
2001;SDS011;1003;48.002;7.788;2023-02-18T15:23:22;1.27;;;1.17;;
2001;SDS011;1003;48.002;7.788;2023-02-18T15:25:50;1.43;;;1.33;;
2001;SDS011;1003;48.002;7.788;2023-02-18T15:28:24;2.80;;;1.30;;
2001;SDS011;1003;48.002;7.788;2023-02-18T15:30:54;1.23;;;1.13;;
2001;SDS011;1003;48.002;7.788;2023-02-18T15:33:23;1.40;;;1.30;;
2001;SDS011;1003;48.002;7.788;2023-02-18T15:35:51;2.13;;;1.33;;
2001;SDS011;1003;48.002;7.788;2023-02-18T15:38:25;2.60;;;1.50;;
2001;SDS011;1003;48.002;7.788;2023-02-18T15:40:53;1.67;;;1.10;;
2001;SDS011;1003;48.002;7.788;2023-02-18T15:43:22;1.10;;;1.00;;
2001;SDS011;1003;48.002;7.788;2023-02-18T15:45:52;1.90;;;1.10;;
2001;SDS011;1003;48.002;7.788;2023-02-18T15:48:26;2.40;;;1.20;;
2001;SDS011;1003;48.002;7.788;2023-02-18T15:51:00;1.10;;;1.00;;
2001;SDS011;1003;48.002;7.788;2023-02-18T15:53:31;1.27;;;1.17;;
2001;SDS011;1003;48.002;7.788;2023-02-18T15:56:04;1.43;;;0.93;;
2001;SDS011;1003;48.002;7.788;2023-02-18T15:58:36;2.13;;;1.40;;
2001;SDS011;1003;48.002;7.788;2023-02-18T16:01:04;1.27;;;1.17;;
2001;SDS011;1003;48.002;7.788;2023-02-18T16:03:50;1.40;;;1.10;;
2001;SDS011;1003;48.002;7.788;2023-02-18T16:06:21;3.50;;;1.50;;
2001;SDS011;1003;48.002;7.788;2023-02-18T16:08:57;1.53;;;1.20;;